sensor_id;sensor_type;location;lat;lon;timestamp;P1;durP1;ratioP1;P2;durP2;ratioP2
73841;SDS011;62184;52.006;5.924;2023-03-12T00:00:53;13.80;;;8.80;;
73841;SDS011;62184;52.006;5.924;2023-03-12T00:03:19;14.40;;;8.75;;
73841;SDS011;62184;52.006;5.924;2023-03-12T00:05:46;14.68;;;8.35;;
73841;SDS011;62184;52.006;5.924;2023-03-12T00:08:12;14.07;;;8.48;;
73841;SDS011;62184;52.006;5.924;2023-03-12T00:10:41;12.55;;;8.80;;
73841;SDS011;62184;52.006;5.924;2023-03-12T00:13:08;12.67;;;9.10;;
73841;SDS011;62184;52.006;5.924;2023-03-12T00:15:35;15.07;;;9.13;;
73841;SDS011;62184;52.006;5.924;2023-03-12T00:18:02;13.73;;;8.68;;
73841;SDS011;62184;52.006;5.924;2023-03-12T00:20:29;14.70;;;8.80;;
73841;SDS011;62184;52.006;5.924;2023-03-12T00:22:55;11.97;;;7.87;;
73841;SDS011;62184;52.006;5.924;2023-03-12T00:25:22;12.23;;;8.10;;
73841;SDS011;62184;52.006;5.924;2023-03-12T00:27:51;13.07;;;8.10;;
73841;SDS011;62184;52.006;5.924;2023-03-12T00:30:17;11.88;;;7.95;;
73841;SDS011;62184;52.006;5.924;2023-03-12T00:32:44;11.38;;;6.93;;
73841;SDS011;62184;52.006;5.924;2023-03-12T00:35:10;11.02;;;6.95;;
73841;SDS011;62184;52.006;5.924;2023-03-12T00:37:37;10.93;;;6.60;;
73841;SDS011;62184;52.006;5.924;2023-03-12T00:40:05;11.82;;;6.88;;
73841;SDS011;62184;52.006;5.924;2023-03-12T00:42:32;11.15;;;6.80;;
73841;SDS011;62184;52.006;5.924;2023-03-12T00:45:02;11.63;;;6.47;;
73841;SDS011;62184;52.006;5.924;2023-03-12T00:47:28;11.18;;;6.30;;
73841;SDS011;62184;52.006;5.924;2023-03-12T00:49:55;10.85;;;6.35;;
73841;SDS011;62184;52.006;5.924;2023-03-12T00:52:21;11.13;;;6.82;;
73841;SDS011;62184;52.006;5.924;2023-03-12T00:54:48;10.40;;;6.53;;
73841;SDS011;62184;52.006;5.924;2023-03-12T00:57:14;10.52;;;6.60;;
73841;SDS011;62184;52.006;5.924;2023-03-12T00:59:41;11.68;;;6.78;;
73841;SDS011;62184;52.006;5.924;2023-03-12T01:02:10;10.60;;;6.35;;
73841;SDS011;62184;52.006;5.924;2023-03-12T01:04:36;9.80;;;5.53;;
73841;SDS011;62184;52.006;5.924;2023-03-12T01:07:03;10.73;;;6.47;;
73841;SDS011;62184;52.006;5.924;2023-03-12T01:09:30;9.57;;;6.00;;
73841;SDS011;62184;52.006;5.924;2023-03-12T01:11:56;10.57;;;5.87;;
73841;SDS011;62184;52.006;5.924;2023-03-12T01:14:22;11.67;;;5.87;;
73841;SDS011;62184;52.006;5.924;2023-03-12T01:16:49;9.40;;;6.30;;
73841;SDS011;62184;52.006;5.924;2023-03-12T01:19:18;10.80;;;5.90;;
73841;SDS011;62184;52.006;5.924;2023-03-12T01:21:45;11.27;;;5.90;;
73841;SDS011;62184;52.006;5.924;2023-03-12T01:24:11;9.47;;;5.70;;
73841;SDS011;62184;52.006;5.924;2023-03-12T01:26:37;9.80;;;5.80;;
73841;SDS011;62184;52.006;5.924;2023-03-12T01:29:04;9.23;;;5.80;;
73841;SDS011;62184;52.006;5.924;2023-03-12T01:31:30;10.13;;;5.80;;
73841;SDS011;62184;52.006;5.924;2023-03-12T01:33:57;11.17;;;5.87;;
73841;SDS011;62184;52.006;5.924;2023-03-12T01:36:26;10.83;;;5.83;;
73841;SDS011;62184;52.006;5.924;2023-03-12T01:38:55;9.88;;;5.85;;
73841;SDS011;62184;52.006;5.924;2023-03-12T01:41:24;10.18;;;5.45;;
73841;SDS011;62184;52.006;5.924;2023-03-12T01:43:54;11.57;;;5.90;;
73841;SDS011;62184;52.006;5.924;2023-03-12T01:46:25;9.77;;;6.28;;
73841;SDS011;62184;52.006;5.924;2023-03-12T01:48:56;10.02;;;5.70;;
73841;SDS011;62184;52.006;5.924;2023-03-12T01:51:29;11.32;;;6.53;;
73841;SDS011;62184;52.006;5.924;2023-03-12T01:54:03;10.97;;;6.07;;
73841;SDS011;62184;52.006;5.924;2023-03-12T01:56:34;10.45;;;5.97;;
73841;SDS011;62184;52.006;5.924;2023-03-12T01:59:03;10.73;;;6.72;;
73841;SDS011;62184;52.006;5.924;2023-03-12T02:01:36;10.57;;;6.63;;
73841;SDS011;62184;52.006;5.924;2023-03-12T02:04:04;10.93;;;5.90;;
73841;SDS011;62184;52.006;5.924;2023-03-12T02:06:35;12.20;;;6.32;;
73841;SDS011;62184;52.006;5.924;2023-03-12T02:09:08;10.80;;;6.25;;
73841;SDS011;62184;52.006;5.924;2023-03-12T02:11:37;10.57;;;5.80;;
73841;SDS011;62184;52.006;5.924;2023-03-12T02:14:03;14.63;;;6.20;;
73841;SDS011;62184;52.006;5.924;2023-03-12T02:16:30;10.23;;;6.35;;
73841;SDS011;62184;52.006;5.924;2023-03-12T02:18:58;14.33;;;6.53;;
73841;SDS011;62184;52.006;5.924;2023-03-12T02:21:27;11.05;;;6.47;;
73841;SDS011;62184;52.006;5.924;2023-03-12T02:24:01;9.55;;;5.93;;
73841;SDS011;62184;52.006;5.924;2023-03-12T02:26:40;10.82;;;6.60;;
73841;SDS011;62184;52.006;5.924;2023-03-12T02:29:07;12.13;;;6.40;;
73841;SDS011;62184;52.006;5.924;2023-03-12T02:31:37;11.55;;;6.00;;
73841;SDS011;62184;52.006;5.924;2023-03-12T02:34:09;10.37;;;5.90;;
73841;SDS011;62184;52.006;5.924;2023-03-12T02:36:35;9.73;;;5.90;;
73841;SDS011;62184;52.006;5.924;2023-03-12T02:39:02;10.48;;;5.30;;
73841;SDS011;62184;52.006;5.924;2023-03-12T02:41:29;10.13;;;5.60;;
73841;SDS011;62184;52.006;5.924;2023-03-12T02:44:04;10.73;;;5.15;;
73841;SDS011;62184;52.006;5.924;2023-03-12T02:46:37;9.77;;;5.27;;
73841;SDS011;62184;52.006;5.924;2023-03-12T02:49:08;9.23;;;5.60;;
73841;SDS011;62184;52.006;5.924;2023-03-12T02:51:35;10.20;;;5.18;;
73841;SDS011;62184;52.006;5.924;2023-03-12T02:54:02;9.70;;;4.60;;
73841;SDS011;62184;52.006;5.924;2023-03-12T02:56:29;9.20;;;4.93;;
73841;SDS011;62184;52.006;5.924;2023-03-12T02:58:56;9.10;;;4.68;;
73841;SDS011;62184;52.006;5.924;2023-03-12T03:01:26;8.77;;;4.78;;
73841;SDS011;62184;52.006;5.924;2023-03-12T03:03:53;9.48;;;4.53;;
73841;SDS011;62184;52.006;5.924;2023-03-12T03:06:20;9.00;;;4.60;;
73841;SDS011;62184;52.006;5.924;2023-03-12T03:08:46;9.93;;;4.30;;
73841;SDS011;62184;52.006;5.924;2023-03-12T03:11:13;9.43;;;4.95;;
73841;SDS011;62184;52.006;5.924;2023-03-12T03:13:39;8.82;;;5.05;;
73841;SDS011;62184;52.006;5.924;2023-03-12T03:16:06;9.18;;;4.55;;
73841;SDS011;62184;52.006;5.924;2023-03-12T03:18:35;9.30;;;4.60;;
73841;SDS011;62184;52.006;5.924;2023-03-12T03:21:03;7.53;;;4.20;;
73841;SDS011;62184;52.006;5.924;2023-03-12T03:23:32;9.10;;;4.22;;
73841;SDS011;62184;52.006;5.924;2023-03-12T03:26:00;8.23;;;4.73;;
73841;SDS011;62184;52.006;5.924;2023-03-12T03:28:28;8.52;;;4.28;;
73841;SDS011;62184;52.006;5.924;2023-03-12T03:30:55;9.13;;;4.93;;
73841;SDS011;62184;52.006;5.924;2023-03-12T03:33:23;11.35;;;4.70;;
73841;SDS011;62184;52.006;5.924;2023-03-12T03:35:52;9.45;;;4.40;;
73841;SDS011;62184;52.006;5.924;2023-03-12T03:38:19;8.67;;;4.80;;
73841;SDS011;62184;52.006;5.924;2023-03-12T03:40:45;10.03;;;5.37;;
73841;SDS011;62184;52.006;5.924;2023-03-12T03:43:12;9.90;;;4.97;;
73841;SDS011;62184;52.006;5.924;2023-03-12T03:45:38;10.75;;;4.97;;
73841;SDS011;62184;52.006;5.924;2023-03-12T03:48:05;10.10;;;4.97;;
73841;SDS011;62184;52.006;5.924;2023-03-12T03:50:31;8.80;;;4.95;;
73841;SDS011;62184;52.006;5.924;2023-03-12T03:53:00;8.65;;;5.10;;
73841;SDS011;62184;52.006;5.924;2023-03-12T03:55:27;9.60;;;4.90;;
73841;SDS011;62184;52.006;5.924;2023-03-12T03:57:53;10.80;;;5.40;;
73841;SDS011;62184;52.006;5.924;2023-03-12T04:00:20;10.47;;;6.27;;
73841;SDS011;62184;52.006;5.924;2023-03-12T04:02:47;10.43;;;6.15;;
73841;SDS011;62184;52.006;5.924;2023-03-12T04:05:13;10.40;;;5.63;;
73841;SDS011;62184;52.006;5.924;2023-03-12T04:07:39;8.85;;;5.15;;
73841;SDS011;62184;52.006;5.924;2023-03-12T04:10:10;10.93;;;5.20;;
73841;SDS011;62184;52.006;5.924;2023-03-12T04:12:36;11.30;;;5.13;;
73841;SDS011;62184;52.006;5.924;2023-03-12T04:15:04;10.15;;;5.20;;
73841;SDS011;62184;52.006;5.924;2023-03-12T04:17:31;9.13;;;5.25;;
73841;SDS011;62184;52.006;5.924;2023-03-12T04:19:57;11.45;;;5.32;;
73841;SDS011;62184;52.006;5.924;2023-03-12T04:22:24;9.00;;;5.53;;
73841;SDS011;62184;52.006;5.924;2023-03-12T04:24:50;10.35;;;5.68;;
73841;SDS011;62184;52.006;5.924;2023-03-12T04:27:19;8.75;;;4.97;;
73841;SDS011;62184;52.006;5.924;2023-03-12T04:29:46;8.85;;;4.68;;
73841;SDS011;62184;52.006;5.924;2023-03-12T04:32:12;10.40;;;5.43;;
73841;SDS011;62184;52.006;5.924;2023-03-12T04:34:39;9.90;;;5.35;;
73841;SDS011;62184;52.006;5.924;2023-03-12T04:37:06;10.85;;;5.30;;
73841;SDS011;62184;52.006;5.924;2023-03-12T04:39:33;11.00;;;5.10;;
73841;SDS011;62184;52.006;5.924;2023-03-12T04:41:59;8.85;;;5.28;;
73841;SDS011;62184;52.006;5.924;2023-03-12T04:44:28;9.93;;;5.53;;
73841;SDS011;62184;52.006;5.924;2023-03-12T04:46:55;10.10;;;5.63;;
73841;SDS011;62184;52.006;5.924;2023-03-12T04:49:21;7.90;;;4.80;;
73841;SDS011;62184;52.006;5.924;2023-03-12T04:51:48;12.25;;;5.55;;
73841;SDS011;62184;52.006;5.924;2023-03-12T04:54:14;9.02;;;5.50;;
73841;SDS011;62184;52.006;5.924;2023-03-12T04:56:40;9.52;;;5.55;;
73841;SDS011;62184;52.006;5.924;2023-03-12T04:59:07;9.02;;;5.07;;
73841;SDS011;62184;52.006;5.924;2023-03-12T05:01:36;7.95;;;5.28;;
73841;SDS011;62184;52.006;5.924;2023-03-12T05:04:03;11.98;;;5.35;;
73841;SDS011;62184;52.006;5.924;2023-03-12T05:06:30;8.43;;;5.32;;
73841;SDS011;62184;52.006;5.924;2023-03-12T05:08:58;9.05;;;5.40;;
73841;SDS011;62184;52.006;5.924;2023-03-12T05:11:25;10.23;;;5.63;;
73841;SDS011;62184;52.006;5.924;2023-03-12T05:13:51;10.53;;;5.17;;
73841;SDS011;62184;52.006;5.924;2023-03-12T05:16:18;11.02;;;5.25;;
73841;SDS011;62184;52.006;5.924;2023-03-12T05:18:47;9.98;;;5.13;;
73841;SDS011;62184;52.006;5.924;2023-03-12T05:21:15;9.20;;;5.50;;
73841;SDS011;62184;52.006;5.924;2023-03-12T05:23:44;10.40;;;5.20;;
73841;SDS011;62184;52.006;5.924;2023-03-12T05:26:16;10.02;;;5.55;;
73841;SDS011;62184;52.006;5.924;2023-03-12T05:28:45;9.50;;;5.65;;
73841;SDS011;62184;52.006;5.924;2023-03-12T05:31:12;10.97;;;5.47;;
73841;SDS011;62184;52.006;5.924;2023-03-12T05:33:40;10.00;;;5.15;;
73841;SDS011;62184;52.006;5.924;2023-03-12T05:36:11;10.10;;;5.13;;
73841;SDS011;62184;52.006;5.924;2023-03-12T05:38:38;9.23;;;4.82;;
73841;SDS011;62184;52.006;5.924;2023-03-12T05:41:05;9.57;;;5.47;;
73841;SDS011;62184;52.006;5.924;2023-03-12T05:43:32;9.40;;;4.90;;
73841;SDS011;62184;52.006;5.924;2023-03-12T05:45:59;9.65;;;5.68;;
73841;SDS011;62184;52.006;5.924;2023-03-12T05:48:27;9.75;;;5.28;;
73841;SDS011;62184;52.006;5.924;2023-03-12T05:50:54;8.80;;;5.05;;
73841;SDS011;62184;52.006;5.924;2023-03-12T05:53:23;9.95;;;4.82;;
73841;SDS011;62184;52.006;5.924;2023-03-12T05:55:50;8.73;;;5.17;;
73841;SDS011;62184;52.006;5.924;2023-03-12T05:58:16;9.80;;;5.10;;
73841;SDS011;62184;52.006;5.924;2023-03-12T06:00:43;11.83;;;5.20;;
73841;SDS011;62184;52.006;5.924;2023-03-12T06:03:10;8.05;;;5.13;;
73841;SDS011;62184;52.006;5.924;2023-03-12T06:05:37;10.52;;;5.30;;
73841;SDS011;62184;52.006;5.924;2023-03-12T06:08:04;9.32;;;4.90;;
73841;SDS011;62184;52.006;5.924;2023-03-12T06:10:35;9.00;;;5.30;;
73841;SDS011;62184;52.006;5.924;2023-03-12T06:13:03;10.10;;;5.20;;
73841;SDS011;62184;52.006;5.924;2023-03-12T06:15:29;8.37;;;5.03;;
73841;SDS011;62184;52.006;5.924;2023-03-12T06:17:56;9.00;;;5.17;;
73841;SDS011;62184;52.006;5.924;2023-03-12T06:20:22;9.57;;;5.50;;
73841;SDS011;62184;52.006;5.924;2023-03-12T06:22:49;11.02;;;5.50;;
73841;SDS011;62184;52.006;5.924;2023-03-12T06:25:15;12.30;;;5.40;;
73841;SDS011;62184;52.006;5.924;2023-03-12T06:27:45;9.27;;;5.75;;
73841;SDS011;62184;52.006;5.924;2023-03-12T06:30:11;10.05;;;5.88;;
73841;SDS011;62184;52.006;5.924;2023-03-12T06:32:40;9.50;;;6.07;;
73841;SDS011;62184;52.006;5.924;2023-03-12T06:35:06;11.43;;;6.00;;
73841;SDS011;62184;52.006;5.924;2023-03-12T06:37:33;10.25;;;6.32;;
73841;SDS011;62184;52.006;5.924;2023-03-12T06:40:00;11.25;;;6.10;;
73841;SDS011;62184;52.006;5.924;2023-03-12T06:42:27;10.32;;;6.35;;
73841;SDS011;62184;52.006;5.924;2023-03-12T06:44:56;10.88;;;6.40;;
73841;SDS011;62184;52.006;5.924;2023-03-12T06:47:22;10.57;;;6.13;;
73841;SDS011;62184;52.006;5.924;2023-03-12T06:49:48;10.40;;;6.45;;
73841;SDS011;62184;52.006;5.924;2023-03-12T06:52:15;8.98;;;6.20;;
73841;SDS011;62184;52.006;5.924;2023-03-12T06:54:41;12.77;;;6.57;;
73841;SDS011;62184;52.006;5.924;2023-03-12T06:57:08;12.05;;;6.10;;
73841;SDS011;62184;52.006;5.924;2023-03-12T06:59:35;11.15;;;6.35;;
73841;SDS011;62184;52.006;5.924;2023-03-12T07:02:04;10.20;;;5.85;;
73841;SDS011;62184;52.006;5.924;2023-03-12T07:04:31;11.88;;;6.43;;
73841;SDS011;62184;52.006;5.924;2023-03-12T07:06:57;10.73;;;6.30;;
73841;SDS011;62184;52.006;5.924;2023-03-12T07:09:23;11.05;;;6.30;;
73841;SDS011;62184;52.006;5.924;2023-03-12T07:11:50;12.55;;;6.32;;
73841;SDS011;62184;52.006;5.924;2023-03-12T07:14:16;12.23;;;6.80;;
73841;SDS011;62184;52.006;5.924;2023-03-12T07:16:43;12.20;;;6.72;;
73841;SDS011;62184;52.006;5.924;2023-03-12T07:19:12;10.60;;;6.30;;
73841;SDS011;62184;52.006;5.924;2023-03-12T07:21:38;11.50;;;6.15;;
73841;SDS011;62184;52.006;5.924;2023-03-12T07:24:05;13.00;;;6.45;;
73841;SDS011;62184;52.006;5.924;2023-03-12T07:26:32;11.27;;;6.20;;
73841;SDS011;62184;52.006;5.924;2023-03-12T07:28:59;13.43;;;6.97;;
73841;SDS011;62184;52.006;5.924;2023-03-12T07:31:26;11.68;;;7.07;;
73841;SDS011;62184;52.006;5.924;2023-03-12T07:33:52;12.85;;;7.43;;
73841;SDS011;62184;52.006;5.924;2023-03-12T07:36:21;12.65;;;6.95;;
73841;SDS011;62184;52.006;5.924;2023-03-12T07:38:48;12.30;;;7.37;;
73841;SDS011;62184;52.006;5.924;2023-03-12T07:41:14;13.97;;;6.97;;
73841;SDS011;62184;52.006;5.924;2023-03-12T07:43:41;12.45;;;7.95;;
73841;SDS011;62184;52.006;5.924;2023-03-12T07:46:07;13.77;;;7.35;;
73841;SDS011;62184;52.006;5.924;2023-03-12T07:48:34;14.70;;;7.57;;
73841;SDS011;62184;52.006;5.924;2023-03-12T07:51:00;13.48;;;7.88;;
73841;SDS011;62184;52.006;5.924;2023-03-12T07:53:29;15.00;;;8.73;;
73841;SDS011;62184;52.006;5.924;2023-03-12T07:55:56;14.50;;;7.60;;
73841;SDS011;62184;52.006;5.924;2023-03-12T07:58:22;14.23;;;7.88;;
73841;SDS011;62184;52.006;5.924;2023-03-12T08:00:49;12.55;;;7.40;;
73841;SDS011;62184;52.006;5.924;2023-03-12T08:03:15;14.55;;;7.82;;
73841;SDS011;62184;52.006;5.924;2023-03-12T08:05:42;13.20;;;7.73;;
73841;SDS011;62184;52.006;5.924;2023-03-12T08:08:08;14.63;;;8.47;;
73841;SDS011;62184;52.006;5.924;2023-03-12T08:10:37;14.27;;;8.00;;
73841;SDS011;62184;52.006;5.924;2023-03-12T08:13:03;14.60;;;7.97;;
73841;SDS011;62184;52.006;5.924;2023-03-12T08:15:30;16.30;;;8.15;;
73841;SDS011;62184;52.006;5.924;2023-03-12T08:17:56;14.95;;;8.32;;
73841;SDS011;62184;52.006;5.924;2023-03-12T08:20:23;17.58;;;8.38;;
73841;SDS011;62184;52.006;5.924;2023-03-12T08:22:49;15.63;;;9.05;;
73841;SDS011;62184;52.006;5.924;2023-03-12T08:25:16;16.30;;;9.30;;
73841;SDS011;62184;52.006;5.924;2023-03-12T08:27:45;18.55;;;10.15;;
73841;SDS011;62184;52.006;5.924;2023-03-12T08:30:12;17.85;;;9.80;;
73841;SDS011;62184;52.006;5.924;2023-03-12T08:32:39;17.50;;;9.43;;
73841;SDS011;62184;52.006;5.924;2023-03-12T08:35:05;19.27;;;9.77;;
73841;SDS011;62184;52.006;5.924;2023-03-12T08:37:33;17.60;;;9.50;;
73841;SDS011;62184;52.006;5.924;2023-03-12T08:39:59;16.88;;;9.75;;
73841;SDS011;62184;52.006;5.924;2023-03-12T08:42:26;16.02;;;9.57;;
73841;SDS011;62184;52.006;5.924;2023-03-12T08:44:55;17.40;;;10.10;;
73841;SDS011;62184;52.006;5.924;2023-03-12T08:47:21;17.30;;;9.98;;
73841;SDS011;62184;52.006;5.924;2023-03-12T08:49:48;16.90;;;9.77;;
73841;SDS011;62184;52.006;5.924;2023-03-12T08:52:14;17.33;;;10.13;;
73841;SDS011;62184;52.006;5.924;2023-03-12T08:54:40;17.55;;;10.18;;
73841;SDS011;62184;52.006;5.924;2023-03-12T08:57:07;17.65;;;9.65;;
73841;SDS011;62184;52.006;5.924;2023-03-12T08:59:33;14.88;;;8.93;;
73841;SDS011;62184;52.006;5.924;2023-03-12T09:02:03;18.92;;;10.52;;
73841;SDS011;62184;52.006;5.924;2023-03-12T09:04:31;19.17;;;10.13;;
73841;SDS011;62184;52.006;5.924;2023-03-12T09:06:59;15.68;;;10.23;;
73841;SDS011;62184;52.006;5.924;2023-03-12T09:09:25;14.93;;;9.57;;
73841;SDS011;62184;52.006;5.924;2023-03-12T09:11:52;18.25;;;10.13;;
73841;SDS011;62184;52.006;5.924;2023-03-12T09:14:18;16.52;;;10.50;;
73841;SDS011;62184;52.006;5.924;2023-03-12T09:16:45;16.30;;;10.25;;
73841;SDS011;62184;52.006;5.924;2023-03-12T09:19:14;18.88;;;10.38;;
73841;SDS011;62184;52.006;5.924;2023-03-12T09:21:41;18.05;;;10.82;;
73841;SDS011;62184;52.006;5.924;2023-03-12T09:24:08;16.88;;;10.02;;
73841;SDS011;62184;52.006;5.924;2023-03-12T09:26:36;17.98;;;10.60;;
73841;SDS011;62184;52.006;5.924;2023-03-12T09:29:02;17.35;;;10.70;;
73841;SDS011;62184;52.006;5.924;2023-03-12T09:31:28;17.37;;;10.10;;
73841;SDS011;62184;52.006;5.924;2023-03-12T09:33:55;18.47;;;10.53;;
73841;SDS011;62184;52.006;5.924;2023-03-12T09:36:24;17.27;;;10.80;;
73841;SDS011;62184;52.006;5.924;2023-03-12T09:38:51;18.08;;;10.30;;
73841;SDS011;62184;52.006;5.924;2023-03-12T09:41:18;17.35;;;10.40;;
73841;SDS011;62184;52.006;5.924;2023-03-12T09:43:49;19.50;;;11.53;;
73841;SDS011;62184;52.006;5.924;2023-03-12T09:46:23;18.17;;;11.82;;
73841;SDS011;62184;52.006;5.924;2023-03-12T09:48:57;18.45;;;11.43;;
73841;SDS011;62184;52.006;5.924;2023-03-12T09:51:34;18.88;;;11.73;;
73841;SDS011;62184;52.006;5.924;2023-03-12T09:54:06;18.02;;;11.88;;
73841;SDS011;62184;52.006;5.924;2023-03-12T09:56:49;20.52;;;12.13;;
73841;SDS011;62184;52.006;5.924;2023-03-12T09:59:19;19.60;;;11.40;;
73841;SDS011;62184;52.006;5.924;2023-03-12T10:01:48;19.38;;;11.43;;
73841;SDS011;62184;52.006;5.924;2023-03-12T10:07:11;24.63;;;12.82;;
73841;SDS011;62184;52.006;5.924;2023-03-12T10:09:50;21.05;;;13.40;;
73841;SDS011;62184;52.006;5.924;2023-03-12T10:12:39;23.50;;;13.32;;
73841;SDS011;62184;52.006;5.924;2023-03-12T10:15:26;23.90;;;13.40;;
73841;SDS011;62184;52.006;5.924;2023-03-12T10:18:10;22.52;;;13.00;;
73841;SDS011;62184;52.006;5.924;2023-03-12T10:23:52;22.48;;;12.70;;
73841;SDS011;62184;52.006;5.924;2023-03-12T10:26:33;21.13;;;13.00;;
73841;SDS011;62184;52.006;5.924;2023-03-12T10:29:07;21.35;;;13.30;;
73841;SDS011;62184;52.006;5.924;2023-03-12T10:31:44;25.08;;;14.18;;
73841;SDS011;62184;52.006;5.924;2023-03-12T10:34:20;25.30;;;13.80;;
73841;SDS011;62184;52.006;5.924;2023-03-12T10:36:57;29.70;;;14.32;;
73841;SDS011;62184;52.006;5.924;2023-03-12T10:39:31;26.83;;;13.68;;
73841;SDS011;62184;52.006;5.924;2023-03-12T10:41:58;29.83;;;15.40;;
73841;SDS011;62184;52.006;5.924;2023-03-12T10:44:25;30.52;;;15.13;;
73841;SDS011;62184;52.006;5.924;2023-03-12T10:46:58;27.02;;;15.55;;
73841;SDS011;62184;52.006;5.924;2023-03-12T10:49:36;31.42;;;15.82;;
73841;SDS011;62184;52.006;5.924;2023-03-12T10:52:04;34.50;;;16.48;;
73841;SDS011;62184;52.006;5.924;2023-03-12T10:54:44;27.13;;;15.73;;
73841;SDS011;62184;52.006;5.924;2023-03-12T10:57:14;30.10;;;16.17;;
73841;SDS011;62184;52.006;5.924;2023-03-12T10:59:42;29.70;;;16.08;;
73841;SDS011;62184;52.006;5.924;2023-03-12T11:02:26;30.63;;;16.42;;
73841;SDS011;62184;52.006;5.924;2023-03-12T11:04:59;29.00;;;16.47;;
73841;SDS011;62184;52.006;5.924;2023-03-12T11:07:43;28.73;;;16.27;;
73841;SDS011;62184;52.006;5.924;2023-03-12T11:10:20;31.90;;;17.07;;
73841;SDS011;62184;52.006;5.924;2023-03-12T11:12:59;33.08;;;18.17;;
73841;SDS011;62184;52.006;5.924;2023-03-12T11:15:29;31.55;;;17.70;;
73841;SDS011;62184;52.006;5.924;2023-03-12T11:23:44;33.50;;;18.20;;
73841;SDS011;62184;52.006;5.924;2023-03-12T11:26:30;32.95;;;18.20;;
73841;SDS011;62184;52.006;5.924;2023-03-12T11:29:03;34.33;;;18.07;;
73841;SDS011;62184;52.006;5.924;2023-03-12T11:31:43;31.85;;;17.08;;
73841;SDS011;62184;52.006;5.924;2023-03-12T11:34:20;32.90;;;17.83;;
73841;SDS011;62184;52.006;5.924;2023-03-12T11:36:54;35.38;;;18.17;;
73841;SDS011;62184;52.006;5.924;2023-03-12T11:39:37;34.17;;;17.75;;
73841;SDS011;62184;52.006;5.924;2023-03-12T11:42:30;35.15;;;18.45;;
73841;SDS011;62184;52.006;5.924;2023-03-12T11:45:14;33.97;;;17.10;;
73841;SDS011;62184;52.006;5.924;2023-03-12T11:47:56;35.85;;;17.52;;
73841;SDS011;62184;52.006;5.924;2023-03-12T11:50:41;31.48;;;16.88;;
73841;SDS011;62184;52.006;5.924;2023-03-12T11:56:26;37.90;;;16.83;;
73841;SDS011;62184;52.006;5.924;2023-03-12T12:02:08;32.53;;;15.40;;
73841;SDS011;62184;52.006;5.924;2023-03-12T12:04:56;30.13;;;14.55;;
73841;SDS011;62184;52.006;5.924;2023-03-12T12:07:51;29.60;;;13.85;;
73841;SDS011;62184;52.006;5.924;2023-03-12T12:10:42;28.95;;;13.27;;
73841;SDS011;62184;52.006;5.924;2023-03-12T12:13:24;25.92;;;11.95;;
73841;SDS011;62184;52.006;5.924;2023-03-12T12:16:08;26.65;;;11.80;;
73841;SDS011;62184;52.006;5.924;2023-03-12T12:18:59;25.77;;;10.80;;
73841;SDS011;62184;52.006;5.924;2023-03-12T12:21:44;22.90;;;9.77;;
73841;SDS011;62184;52.006;5.924;2023-03-12T12:24:37;27.63;;;9.88;;
73841;SDS011;62184;52.006;5.924;2023-03-12T12:27:25;25.98;;;9.45;;
73841;SDS011;62184;52.006;5.924;2023-03-12T12:30:00;23.83;;;9.15;;
73841;SDS011;62184;52.006;5.924;2023-03-12T12:32:47;25.15;;;9.20;;
73841;SDS011;62184;52.006;5.924;2023-03-12T12:35:42;23.63;;;8.55;;
73841;SDS011;62184;52.006;5.924;2023-03-12T12:38:09;22.63;;;8.43;;
73841;SDS011;62184;52.006;5.924;2023-03-12T12:40:45;25.50;;;8.20;;
73841;SDS011;62184;52.006;5.924;2023-03-12T12:43:21;25.20;;;8.07;;
73841;SDS011;62184;52.006;5.924;2023-03-12T12:45:54;27.02;;;8.60;;
73841;SDS011;62184;52.006;5.924;2023-03-12T12:48:28;27.93;;;9.10;;
73841;SDS011;62184;52.006;5.924;2023-03-12T12:51:02;28.70;;;8.90;;
73841;SDS011;62184;52.006;5.924;2023-03-12T12:53:35;33.00;;;9.48;;
73841;SDS011;62184;52.006;5.924;2023-03-12T12:56:14;29.83;;;8.47;;
73841;SDS011;62184;52.006;5.924;2023-03-12T12:58:56;28.30;;;8.20;;
73841;SDS011;62184;52.006;5.924;2023-03-12T13:01:46;29.00;;;8.07;;
73841;SDS011;62184;52.006;5.924;2023-03-12T13:04:19;29.65;;;7.93;;
73841;SDS011;62184;52.006;5.924;2023-03-12T13:06:52;26.67;;;7.88;;
73841;SDS011;62184;52.006;5.924;2023-03-12T13:09:36;29.58;;;7.57;;
73841;SDS011;62184;52.006;5.924;2023-03-12T13:12:12;25.08;;;7.20;;
73841;SDS011;62184;52.006;5.924;2023-03-12T13:14:45;31.10;;;7.22;;
73841;SDS011;62184;52.006;5.924;2023-03-12T13:20:05;31.95;;;8.20;;
73841;SDS011;62184;52.006;5.924;2023-03-12T13:25:57;25.45;;;7.35;;
73841;SDS011;62184;52.006;5.924;2023-03-12T13:28:32;25.25;;;7.72;;
73841;SDS011;62184;52.006;5.924;2023-03-12T13:31:07;29.60;;;7.28;;
73841;SDS011;62184;52.006;5.924;2023-03-12T13:37:19;27.88;;;6.70;;
73841;SDS011;62184;52.006;5.924;2023-03-12T13:43:39;28.08;;;5.88;;
73841;SDS011;62184;52.006;5.924;2023-03-12T13:46:31;30.95;;;6.18;;
73841;SDS011;62184;52.006;5.924;2023-03-12T13:49:05;26.50;;;6.43;;
73841;SDS011;62184;52.006;5.924;2023-03-12T13:51:42;28.25;;;5.97;;
73841;SDS011;62184;52.006;5.924;2023-03-12T13:54:22;29.90;;;6.10;;
73841;SDS011;62184;52.006;5.924;2023-03-12T13:56:57;33.53;;;6.40;;
73841;SDS011;62184;52.006;5.924;2023-03-12T13:59:27;30.85;;;6.13;;
73841;SDS011;62184;52.006;5.924;2023-03-12T14:01:57;26.30;;;6.30;;
73841;SDS011;62184;52.006;5.924;2023-03-12T14:04:33;32.17;;;6.35;;
73841;SDS011;62184;52.006;5.924;2023-03-12T14:07:14;29.45;;;6.13;;
73841;SDS011;62184;52.006;5.924;2023-03-12T14:10:08;25.85;;;5.60;;
73841;SDS011;62184;52.006;5.924;2023-03-12T14:12:54;31.23;;;5.97;;
73841;SDS011;62184;52.006;5.924;2023-03-12T14:15:38;29.05;;;5.55;;
73841;SDS011;62184;52.006;5.924;2023-03-12T14:18:17;28.55;;;5.47;;
73841;SDS011;62184;52.006;5.924;2023-03-12T14:20:51;25.15;;;5.43;;
73841;SDS011;62184;52.006;5.924;2023-03-12T14:23:21;22.63;;;4.77;;
73841;SDS011;62184;52.006;5.924;2023-03-12T14:25:57;23.60;;;4.80;;
73841;SDS011;62184;52.006;5.924;2023-03-12T14:28:27;21.50;;;4.43;;
73841;SDS011;62184;52.006;5.924;2023-03-12T14:30:55;25.00;;;5.07;;
73841;SDS011;62184;52.006;5.924;2023-03-12T14:33:27;21.92;;;4.28;;
73841;SDS011;62184;52.006;5.924;2023-03-12T14:36:02;18.60;;;4.00;;
73841;SDS011;62184;52.006;5.924;2023-03-12T14:38:36;22.90;;;4.70;;
73841;SDS011;62184;52.006;5.924;2023-03-12T14:41:11;27.42;;;5.18;;
73841;SDS011;62184;52.006;5.924;2023-03-12T14:43:49;23.65;;;4.50;;
73841;SDS011;62184;52.006;5.924;2023-03-12T14:46:18;24.58;;;4.80;;
73841;SDS011;62184;52.006;5.924;2023-03-12T14:48:47;23.20;;;4.60;;
73841;SDS011;62184;52.006;5.924;2023-03-12T14:51:18;23.55;;;4.70;;
73841;SDS011;62184;52.006;5.924;2023-03-12T14:53:48;23.77;;;4.38;;
73841;SDS011;62184;52.006;5.924;2023-03-12T14:56:23;22.27;;;5.50;;
73841;SDS011;62184;52.006;5.924;2023-03-12T14:58:52;22.13;;;5.07;;
73841;SDS011;62184;52.006;5.924;2023-03-12T15:01:19;22.13;;;4.93;;
73841;SDS011;62184;52.006;5.924;2023-03-12T15:03:49;23.08;;;5.00;;
73841;SDS011;62184;52.006;5.924;2023-03-12T15:06:21;23.48;;;5.07;;
73841;SDS011;62184;52.006;5.924;2023-03-12T15:08:54;21.45;;;4.40;;
73841;SDS011;62184;52.006;5.924;2023-03-12T15:11:25;24.10;;;4.43;;
73841;SDS011;62184;52.006;5.924;2023-03-12T15:13:54;23.73;;;4.60;;
73841;SDS011;62184;52.006;5.924;2023-03-12T15:16:28;24.48;;;4.78;;
73841;SDS011;62184;52.006;5.924;2023-03-12T15:18:55;19.27;;;4.03;;
73841;SDS011;62184;52.006;5.924;2023-03-12T15:21:22;20.47;;;4.23;;
73841;SDS011;62184;52.006;5.924;2023-03-12T15:23:50;23.65;;;4.78;;